sensor_id;sensor_type;location;lat;lon;timestamp;pressure;altitude;pressure_sealevel;temperature;humidity
54900;BME280;40801;41.924;25.562;2022-07-23T00:01:27;99572.09;;;23.47;44.26
54900;BME280;40801;41.924;25.562;2022-07-23T00:03:54;99570.06;;;23.40;44.78
54900;BME280;40801;41.924;25.562;2022-07-23T00:06:20;99577.91;;;23.31;44.64
54900;BME280;40801;41.924;25.562;2022-07-23T00:08:45;99575.53;;;23.30;44.82
54900;BME280;40801;41.924;25.562;2022-07-23T00:11:11;99581.41;;;23.25;45.07
54900;BME280;40801;41.924;25.562;2022-07-23T00:13:36;99581.00;;;23.23;44.96
54900;BME280;40801;41.924;25.562;2022-07-23T00:16:02;99581.38;;;23.17;45.52
54900;BME280;40801;41.924;25.562;2022-07-23T00:18:27;99575.84;;;23.14;45.41
54900;BME280;40801;41.924;25.562;2022-07-23T00:20:53;99572.69;;;23.12;45.56
54900;BME280;40801;41.924;25.562;2022-07-23T00:23:18;99574.59;;;23.01;45.53
54900;BME280;40801;41.924;25.562;2022-07-23T00:25:44;99573.38;;;22.98;45.72
54900;BME280;40801;41.924;25.562;2022-07-23T00:28:10;99574.19;;;22.99;46.07
54900;BME280;40801;41.924;25.562;2022-07-23T00:30:36;99576.88;;;22.92;45.72
54900;BME280;40801;41.924;25.562;2022-07-23T00:33:05;99575.69;;;22.89;45.79
54900;BME280;40801;41.924;25.562;2022-07-23T00:35:34;99578.44;;;22.85;45.91
54900;BME280;40801;41.924;25.562;2022-07-23T00:38:01;99576.34;;;22.79;45.97
54900;BME280;40801;41.924;25.562;2022-07-23T00:40:27;99568.47;;;22.74;45.91
54900;BME280;40801;41.924;25.562;2022-07-23T00:42:53;99571.59;;;22.69;46.23
54900;BME280;40801;41.924;25.562;2022-07-23T00:45:19;99575.47;;;22.64;46.41
54900;BME280;40801;41.924;25.562;2022-07-23T00:47:45;99575.06;;;22.62;46.54
54900;BME280;40801;41.924;25.562;2022-07-23T00:50:13;99562.84;;;22.56;46.76
54900;BME280;40801;41.924;25.562;2022-07-23T00:52:39;99565.97;;;22.54;46.70
54900;BME280;40801;41.924;25.562;2022-07-23T00:55:06;99565.56;;;22.52;46.89
54900;BME280;40801;41.924;25.562;2022-07-23T00:57:32;99571.41;;;22.47;46.95
54900;BME280;40801;41.924;25.562;2022-07-23T00:59:58;99573.34;;;22.43;46.79
54900;BME280;40801;41.924;25.562;2022-07-23T01:02:24;99576.09;;;22.43;46.79
54900;BME280;40801;41.924;25.562;2022-07-23T01:04:50;99579.66;;;22.47;46.67
54900;BME280;40801;41.924;25.562;2022-07-23T01:07:16;99572.94;;;22.45;47.10
54900;BME280;40801;41.924;25.562;2022-07-23T01:09:42;99576.09;;;22.47;47.04
54900;BME280;40801;41.924;25.562;2022-07-23T01:12:09;99572.53;;;22.43;47.25
54900;BME280;40801;41.924;25.562;2022-07-23T01:14:34;99570.94;;;22.38;47.15
54900;BME280;40801;41.924;25.562;2022-07-23T01:16:59;99574.00;;;22.30;47.20
54900;BME280;40801;41.924;25.562;2022-07-23T01:19:25;99577.13;;;22.28;47.10
54900;BME280;40801;41.924;25.562;2022-07-23T01:21:51;99586.91;;;22.25;47.13
54900;BME280;40801;41.924;25.562;2022-07-23T01:24:18;99588.06;;;22.24;47.10
54900;BME280;40801;41.924;25.562;2022-07-23T01:26:47;99589.16;;;22.16;47.22
54900;BME280;40801;41.924;25.562;2022-07-23T01:29:14;99583.22;;;22.11;47.50
54900;BME280;40801;41.924;25.562;2022-07-23T01:31:40;99579.25;;;22.05;47.67
54900;BME280;40801;41.924;25.562;2022-07-23T01:34:06;99585.53;;;22.05;47.69
54900;BME280;40801;41.924;25.562;2022-07-23T01:36:33;99580.34;;;22.00;47.81
54900;BME280;40801;41.924;25.562;2022-07-23T01:38:58;99590.59;;;22.03;47.20
54900;BME280;40801;41.924;25.562;2022-07-23T01:41:24;99578.09;;;22.06;46.93
54900;BME280;40801;41.924;25.562;2022-07-23T01:43:49;99591.06;;;22.09;46.54
54900;BME280;40801;41.924;25.562;2022-07-23T01:46:15;99590.28;;;22.08;46.60
54900;BME280;40801;41.924;25.562;2022-07-23T01:48:40;99582.41;;;22.07;46.63
54900;BME280;40801;41.924;25.562;2022-07-23T01:51:06;99583.47;;;21.99;46.58
54900;BME280;40801;41.924;25.562;2022-07-23T01:53:31;99583.38;;;21.91;46.99
54900;BME280;40801;41.924;25.562;2022-07-23T01:55:58;99586.84;;;21.85;47.22
54900;BME280;40801;41.924;25.562;2022-07-23T01:58:24;99590.75;;;21.84;47.18
54900;BME280;40801;41.924;25.562;2022-07-23T02:00:50;99593.06;;;21.78;47.10
54900;BME280;40801;41.924;25.562;2022-07-23T02:03:15;99577.22;;;21.68;47.42
54900;BME280;40801;41.924;25.562;2022-07-23T02:05:41;99582.78;;;21.72;47.15
54900;BME280;40801;41.924;25.562;2022-07-23T02:08:06;99579.25;;;21.71;47.37
54900;BME280;40801;41.924;25.562;2022-07-23T02:10:32;99581.56;;;21.69;47.29
54900;BME280;40801;41.924;25.562;2022-07-23T02:12:57;99587.78;;;21.66;47.52
54900;BME280;40801;41.924;25.562;2022-07-23T02:15:23;99585.78;;;21.63;47.30
54900;BME280;40801;41.924;25.562;2022-07-23T02:17:48;99586.97;;;21.62;47.40
54900;BME280;40801;41.924;25.562;2022-07-23T02:20:14;99589.22;;;21.53;47.52
54900;BME280;40801;41.924;25.562;2022-07-23T02:22:39;99584.44;;;21.46;47.85
54900;BME280;40801;41.924;25.562;2022-07-23T02:25:06;99589.50;;;21.44;47.96
54900;BME280;40801;41.924;25.562;2022-07-23T02:27:32;99578.00;;;21.35;47.99
54900;BME280;40801;41.924;25.562;2022-07-23T02:29:57;99586.56;;;21.30;48.12
54900;BME280;40801;41.924;25.562;2022-07-23T02:32:23;99587.72;;;21.29;48.17
54900;BME280;40801;41.924;25.562;2022-07-23T02:34:49;99592.28;;;21.21;48.33
54900;BME280;40801;41.924;25.562;2022-07-23T02:37:15;99581.28;;;21.18;48.36
54900;BME280;40801;41.924;25.562;2022-07-23T02:39:40;99581.97;;;21.11;48.64
54900;BME280;40801;41.924;25.562;2022-07-23T02:42:06;99596.47;;;21.12;48.62
54900;BME280;40801;41.924;25.562;2022-07-23T02:44:32;99594.53;;;21.12;48.59
54900;BME280;40801;41.924;25.562;2022-07-23T02:46:57;99594.75;;;21.03;48.82
54900;BME280;40801;41.924;25.562;2022-07-23T02:49:23;99595.13;;;21.02;49.05
54900;BME280;40801;41.924;25.562;2022-07-23T02:51:48;99603.31;;;20.98;49.01
54900;BME280;40801;41.924;25.562;2022-07-23T02:54:13;99596.16;;;20.90;49.18
54900;BME280;40801;41.924;25.562;2022-07-23T02:56:39;99605.09;;;20.87;49.43
54900;BME280;40801;41.924;25.562;2022-07-23T02:59:04;99610.53;;;20.84;49.42
54900;BME280;40801;41.924;25.562;2022-07-23T03:01:30;99608.59;;;20.84;49.27
54900;BME280;40801;41.924;25.562;2022-07-23T03:03:55;99610.03;;;20.78;49.53
54900;BME280;40801;41.924;25.562;2022-07-23T03:06:20;99611.94;;;20.74;49.61
54900;BME280;40801;41.924;25.562;2022-07-23T03:08:46;99611.56;;;20.76;49.40
54900;BME280;40801;41.924;25.562;2022-07-23T03:11:11;99624.09;;;20.77;49.43
54900;BME280;40801;41.924;25.562;2022-07-23T03:13:38;99613.50;;;20.75;49.40
54900;BME280;40801;41.924;25.562;2022-07-23T03:16:03;99623.22;;;20.69;49.44
54900;BME280;40801;41.924;25.562;2022-07-23T03:18:29;99621.31;;;20.73;49.31
54900;BME280;40801;41.924;25.562;2022-07-23T03:20:54;99619.47;;;20.81;49.21
54900;BME280;40801;41.924;25.562;2022-07-23T03:23:20;99620.34;;;20.85;49.23
54900;BME280;40801;41.924;25.562;2022-07-23T03:25:45;99618.44;;;20.89;48.94
54900;BME280;40801;41.924;25.562;2022-07-23T03:28:17;99624.72;;;20.89;49.01
54900;BME280;40801;41.924;25.562;2022-07-23T03:30:43;99624.09;;;20.77;50.07
54900;BME280;40801;41.924;25.562;2022-07-23T03:33:08;99622.16;;;20.77;49.33
54900;BME280;40801;41.924;25.562;2022-07-23T03:35:34;99626.63;;;20.85;49.23
54900;BME280;40801;41.924;25.562;2022-07-23T03:37:59;99620.81;;;20.90;49.07
54900;BME280;40801;41.924;25.562;2022-07-23T03:40:25;99618.97;;;20.98;49.13
54900;BME280;40801;41.924;25.562;2022-07-23T03:42:50;99618.28;;;21.04;48.97
54900;BME280;40801;41.924;25.562;2022-07-23T03:45:16;99618.41;;;21.12;48.90
54900;BME280;40801;41.924;25.562;2022-07-23T03:47:41;99618.09;;;21.17;48.82
54900;BME280;40801;41.924;25.562;2022-07-23T03:50:08;99615.75;;;21.19;48.66
54900;BME280;40801;41.924;25.562;2022-07-23T03:52:34;99617.09;;;21.28;48.37
54900;BME280;40801;41.924;25.562;2022-07-23T03:54:59;99614.50;;;21.39;48.23
54900;BME280;40801;41.924;25.562;2022-07-23T03:57:24;99613.03;;;21.45;48.07
54900;BME280;40801;41.924;25.562;2022-07-23T03:59:50;99616.59;;;21.49;48.15
54900;BME280;40801;41.924;25.562;2022-07-23T04:02:15;99626.09;;;21.55;48.07
54900;BME280;40801;41.924;25.562;2022-07-23T04:04:41;99622.63;;;21.62;47.95
54900;BME280;40801;41.924;25.562;2022-07-23T04:07:06;99620.72;;;21.66;47.86
54900;BME280;40801;41.924;25.562;2022-07-23T04:09:33;99631.44;;;21.75;48.06
54900;BME280;40801;41.924;25.562;2022-07-23T04:11:58;99629.50;;;21.75;48.20
54900;BME280;40801;41.924;25.562;2022-07-23T04:14:24;99631.13;;;21.80;48.25
54900;BME280;40801;41.924;25.562;2022-07-23T04:16:49;99632.41;;;21.89;48.21
54900;BME280;40801;41.924;25.562;2022-07-23T04:19:15;99634.06;;;21.98;48.23
54900;BME280;40801;41.924;25.562;2022-07-23T04:21:40;99640.53;;;22.12;48.17
54900;BME280;40801;41.924;25.562;2022-07-23T04:24:06;99632.88;;;22.29;47.91
54900;BME280;40801;41.924;25.562;2022-07-23T04:26:31;99632.97;;;22.39;47.84
54900;BME280;40801;41.924;25.562;2022-07-23T04:28:56;99633.94;;;22.58;47.53
54900;BME280;40801;41.924;25.562;2022-07-23T04:31:22;99632.88;;;22.73;47.65
54900;BME280;40801;41.924;25.562;2022-07-23T04:33:47;99635.78;;;22.87;47.41
54900;BME280;40801;41.924;25.562;2022-07-23T04:36:12;99630.78;;;23.03;47.40
54900;BME280;40801;41.924;25.562;2022-07-23T04:38:38;99636.03;;;23.23;47.04
54900;BME280;40801;41.924;25.562;2022-07-23T04:41:03;99635.34;;;23.40;46.65
54900;BME280;40801;41.924;25.562;2022-07-23T04:43:29;99639.38;;;23.53;46.85
54900;BME280;40801;41.924;25.562;2022-07-23T04:45:54;99637.88;;;23.66;46.34
54900;BME280;40801;41.924;25.562;2022-07-23T04:48:20;99637.53;;;23.75;45.59
54900;BME280;40801;41.924;25.562;2022-07-23T04:50:45;99635.63;;;23.90;45.54
54900;BME280;40801;41.924;25.562;2022-07-23T04:53:11;99641.59;;;24.09;45.04
54900;BME280;40801;41.924;25.562;2022-07-23T04:55:36;99635.78;;;24.29;44.85
54900;BME280;40801;41.924;25.562;2022-07-23T04:58:01;99638.56;;;24.50;44.58
54900;BME280;40801;41.924;25.562;2022-07-23T05:00:27;99635.81;;;24.64;44.82
54900;BME280;40801;41.924;25.562;2022-07-23T05:02:52;99640.94;;;24.80;44.48
54900;BME280;40801;41.924;25.562;2022-07-23T05:05:18;99645.28;;;24.92;43.47
54900;BME280;40801;41.924;25.562;2022-07-23T05:07:43;99649.22;;;24.98;43.32
54900;BME280;40801;41.924;25.562;2022-07-23T05:10:08;99644.91;;;25.04;43.06
54900;BME280;40801;41.924;25.562;2022-07-23T05:12:34;99646.88;;;25.11;42.56
54900;BME280;40801;41.924;25.562;2022-07-23T05:14:59;99646.84;;;25.14;42.24
54900;BME280;40801;41.924;25.562;2022-07-23T05:17:25;99649.63;;;25.18;42.39
54900;BME280;40801;41.924;25.562;2022-07-23T05:19:50;99643.72;;;25.19;42.49
54900;BME280;40801;41.924;25.562;2022-07-23T05:22:16;99640.53;;;25.31;42.08
54900;BME280;40801;41.924;25.562;2022-07-23T05:24:41;99637.75;;;25.46;41.65
54900;BME280;40801;41.924;25.562;2022-07-23T05:27:08;99648.75;;;25.60;41.58
54900;BME280;40801;41.924;25.562;2022-07-23T05:29:33;99636.88;;;25.81;40.86
54900;BME280;40801;41.924;25.562;2022-07-23T05:31:59;99642.34;;;25.88;40.73
54900;BME280;40801;41.924;25.562;2022-07-23T05:34:24;99646.69;;;25.89;40.74
54900;BME280;40801;41.924;25.562;2022-07-23T05:36:50;99653.31;;;26.09;40.58
54900;BME280;40801;41.924;25.562;2022-07-23T05:39:15;99645.38;;;26.18;40.44
54900;BME280;40801;41.924;25.562;2022-07-23T05:41:41;99643.31;;;26.30;40.30
54900;BME280;40801;41.924;25.562;2022-07-23T05:44:06;99653.44;;;26.58;40.19
54900;BME280;40801;41.924;25.562;2022-07-23T05:46:32;99644.66;;;26.70;39.63
54900;BME280;40801;41.924;25.562;2022-07-23T05:48:57;99648.19;;;26.74;39.46
54900;BME280;40801;41.924;25.562;2022-07-23T05:51:23;99643.34;;;26.85;39.16
54900;BME280;40801;41.924;25.562;2022-07-23T05:53:49;99636.97;;;26.88;38.90
54900;BME280;40801;41.924;25.562;2022-07-23T05:56:16;99641.66;;;26.98;38.98
54900;BME280;40801;41.924;25.562;2022-07-23T05:58:41;99641.09;;;27.21;39.13
54900;BME280;40801;41.924;25.562;2022-07-23T06:01:07;99642.81;;;27.42;38.28
54900;BME280;40801;41.924;25.562;2022-07-23T06:03:32;99651.09;;;27.49;38.04
54900;BME280;40801;41.924;25.562;2022-07-23T06:05:57;99646.63;;;27.59;37.82
54900;BME280;40801;41.924;25.562;2022-07-23T06:08:23;99644.53;;;27.70;37.77
54900;BME280;40801;41.924;25.562;2022-07-23T06:10:48;99638.34;;;27.89;37.53
54900;BME280;40801;41.924;25.562;2022-07-23T06:13:14;99640.91;;;28.07;37.45
54900;BME280;40801;41.924;25.562;2022-07-23T06:15:39;99639.41;;;28.29;36.92
54900;BME280;40801;41.924;25.562;2022-07-23T06:18:05;99646.41;;;28.41;36.51
54900;BME280;40801;41.924;25.562;2022-07-23T06:20:30;99640.63;;;28.55;36.30
54900;BME280;40801;41.924;25.562;2022-07-23T06:22:55;99641.97;;;28.71;35.99
54900;BME280;40801;41.924;25.562;2022-07-23T06:25:21;99638.53;;;28.63;35.54
54900;BME280;40801;41.924;25.562;2022-07-23T06:27:47;99630.16;;;28.66;35.74
54900;BME280;40801;41.924;25.562;2022-07-23T06:30:13;99630.78;;;29.01;35.53
54900;BME280;40801;41.924;25.562;2022-07-23T06:32:39;99637.72;;;29.13;34.61
54900;BME280;40801;41.924;25.562;2022-07-23T06:35:04;99635.53;;;29.24;34.46
54900;BME280;40801;41.924;25.562;2022-07-23T06:37:30;99632.56;;;29.35;34.07
54900;BME280;40801;41.924;25.562;2022-07-23T06:39:55;99628.72;;;29.48;33.96
54900;BME280;40801;41.924;25.562;2022-07-23T06:42:21;99625.91;;;29.52;33.44
54900;BME280;40801;41.924;25.562;2022-07-23T06:44:46;99630.59;;;29.75;33.21
54900;BME280;40801;41.924;25.562;2022-07-23T06:47:11;99624.75;;;29.89;33.11
54900;BME280;40801;41.924;25.562;2022-07-23T06:49:37;99620.25;;;30.15;32.30
54900;BME280;40801;41.924;25.562;2022-07-23T06:52:02;99617.75;;;30.37;32.51
54900;BME280;40801;41.924;25.562;2022-07-23T06:54:28;99621.06;;;30.48;32.53
54900;BME280;40801;41.924;25.562;2022-07-23T06:56:53;99616.56;;;30.70;31.87
54900;BME280;40801;41.924;25.562;2022-07-23T06:59:18;99626.03;;;30.89;31.51
54900;BME280;40801;41.924;25.562;2022-07-23T07:01:44;99617.75;;;30.86;31.49
54900;BME280;40801;41.924;25.562;2022-07-23T07:04:09;99625.25;;;31.05;31.54
54900;BME280;40801;41.924;25.562;2022-07-23T07:06:35;99622.69;;;31.10;30.99
54900;BME280;40801;41.924;25.562;2022-07-23T07:09:00;99615.41;;;31.17;31.44
54900;BME280;40801;41.924;25.562;2022-07-23T07:11:25;99622.06;;;31.35;30.87
54900;BME280;40801;41.924;25.562;2022-07-23T07:13:51;99621.56;;;31.53;30.92
54900;BME280;40801;41.924;25.562;2022-07-23T07:16:16;99621.75;;;31.75;30.68
54900;BME280;40801;41.924;25.562;2022-07-23T07:18:42;99624.25;;;31.86;30.19
54900;BME280;40801;41.924;25.562;2022-07-23T07:21:07;99619.78;;;32.01;29.80
54900;BME280;40801;41.924;25.562;2022-07-23T07:23:33;99623.47;;;31.98;29.47
54900;BME280;40801;41.924;25.562;2022-07-23T07:25:58;99618.34;;;32.09;29.38
54900;BME280;40801;41.924;25.562;2022-07-23T07:28:23;99616.78;;;32.08;29.43
54900;BME280;40801;41.924;25.562;2022-07-23T07:30:49;99612.25;;;32.27;28.92
54900;BME280;40801;41.924;25.562;2022-07-23T07:33:14;99607.91;;;32.39;28.47
54900;BME280;40801;41.924;25.562;2022-07-23T07:35:40;99600.28;;;32.52;28.70
54900;BME280;40801;41.924;25.562;2022-07-23T07:38:05;99600.25;;;32.64;28.62
54900;BME280;40801;41.924;25.562;2022-07-23T07:40:31;99604.28;;;32.76;27.93
54900;BME280;40801;41.924;25.562;2022-07-23T07:42:56;99596.84;;;32.95;27.80
54900;BME280;40801;41.924;25.562;2022-07-23T07:45:23;99595.75;;;32.92;27.49
54900;BME280;40801;41.924;25.562;2022-07-23T07:47:50;99592.94;;;32.92;27.66
54900;BME280;40801;41.924;25.562;2022-07-23T07:50:16;99595.19;;;32.98;27.51
54900;BME280;40801;41.924;25.562;2022-07-23T07:52:42;99584.47;;;33.18;27.55
54900;BME280;40801;41.924;25.562;2022-07-23T07:55:09;99585.44;;;33.37;27.78
54900;BME280;40801;41.924;25.562;2022-07-23T07:57:36;99591.03;;;33.59;27.37
54900;BME280;40801;41.924;25.562;2022-07-23T08:00:01;99586.00;;;33.75;27.26
54900;BME280;40801;41.924;25.562;2022-07-23T08:02:27;99583.03;;;33.79;26.55
54900;BME280;40801;41.924;25.562;2022-07-23T08:04:52;99583.16;;;33.88;25.76
54900;BME280;40801;41.924;25.562;2022-07-23T08:07:18;99583.16;;;33.88;25.73
54900;BME280;40801;41.924;25.562;2022-07-23T08:09:44;99584.75;;;33.98;26.27
54900;BME280;40801;41.924;25.562;2022-07-23T08:12:09;99578.63;;;34.22;25.84
54900;BME280;40801;41.924;25.562;2022-07-23T08:14:35;99573.91;;;34.50;26.02
54900;BME280;40801;41.924;25.562;2022-07-23T08:17:00;99573.34;;;34.82;26.31
54900;BME280;40801;41.924;25.562;2022-07-23T08:19:26;99568.38;;;35.14;25.50
54900;BME280;40801;41.924;25.562;2022-07-23T08:21:51;99567.28;;;35.48;25.81
54900;BME280;40801;41.924;25.562;2022-07-23T08:24:16;99572.97;;;35.90;24.91
54900;BME280;40801;41.924;25.562;2022-07-23T08:26:42;99565.81;;;36.22;24.45
54900;BME280;40801;41.924;25.562;2022-07-23T08:29:08;99565.38;;;36.47;24.62
54900;BME280;40801;41.924;25.562;2022-07-23T08:31:33;99562.09;;;36.73;23.37
54900;BME280;40801;41.924;25.562;2022-07-23T08:33:59;99564.59;;;36.71;23.56
54900;BME280;40801;41.924;25.562;2022-07-23T08:36:25;99563.38;;;37.10;23.13
54900;BME280;40801;41.924;25.562;2022-07-23T08:38:53;99555.78;;;37.55;22.77
54900;BME280;40801;41.924;25.562;2022-07-23T08:41:19;99566.53;;;37.86;23.30
54900;BME280;40801;41.924;25.562;2022-07-23T08:43:45;99562.44;;;38.17;22.89
54900;BME280;40801;41.924;25.562;2022-07-23T08:46:12;99562.28;;;38.61;21.91
54900;BME280;40801;41.924;25.562;2022-07-23T08:48:38;99565.53;;;38.74;21.72
54900;BME280;40801;41.924;25.562;2022-07-23T08:51:05;99566.19;;;39.04;21.02
54900;BME280;40801;41.924;25.562;2022-07-23T08:53:32;99555.81;;;39.16;21.43
54900;BME280;40801;41.924;25.562;2022-07-23T08:56:00;99557.53;;;39.33;21.44
54900;BME280;40801;41.924;25.562;2022-07-23T08:58:29;99546.34;;;39.71;20.17
54900;BME280;40801;41.924;25.562;2022-07-23T09:00:55;99544.78;;;39.70;19.75
54900;BME280;40801;41.924;25.562;2022-07-23T09:03:31;99540.94;;;39.67;20.21
54900;BME280;40801;41.924;25.562;2022-07-23T09:05:58;99541.81;;;39.53;20.89
54900;BME280;40801;41.924;25.562;2022-07-23T09:11:02;99539.06;;;40.27;20.17
54900;BME280;40801;41.924;25.562;2022-07-23T09:13:29;99531.19;;;40.48;19.85
54900;BME280;40801;41.924;25.562;2022-07-23T09:15:57;99530.78;;;40.66;19.61
54900;BME280;40801;41.924;25.562;2022-07-23T09:18:37;99519.66;;;41.22;19.84
54900;BME280;40801;41.924;25.562;2022-07-23T09:21:14;99519.31;;;40.98;18.60
54900;BME280;40801;41.924;25.562;2022-07-23T09:23:46;99519.66;;;41.33;19.36
54900;BME280;40801;41.924;25.562;2022-07-23T09:26:20;99513.47;;;41.57;17.78
54900;BME280;40801;41.924;25.562;2022-07-23T09:31:20;99513.50;;;41.74;18.13
54900;BME280;40801;41.924;25.562;2022-07-23T09:33:45;99508.59;;;41.86;17.92
54900;BME280;40801;41.924;25.562;2022-07-23T09:36:11;99506.84;;;41.66;17.44
54900;BME280;40801;41.924;25.562;2022-07-23T09:38:50;99508.34;;;42.06;17.30
54900;BME280;40801;41.924;25.562;2022-07-23T09:41:16;99501.25;;;42.41;17.73
54900;BME280;40801;41.924;25.562;2022-07-23T09:43:42;99505.63;;;42.47;17.11
54900;BME280;40801;41.924;25.562;2022-07-23T09:48:47;99504.91;;;42.93;16.46
54900;BME280;40801;41.924;25.562;2022-07-23T09:51:13;99502.75;;;43.05;16.22
54900;BME280;40801;41.924;25.562;2022-07-23T09:54:04;99503.34;;;42.98;16.68
54900;BME280;40801;41.924;25.562;2022-07-23T09:56:30;99494.63;;;42.85;15.77
54900;BME280;40801;41.924;25.562;2022-07-23T09:58:58;99493.53;;;42.99;15.13
54900;BME280;40801;41.924;25.562;2022-07-23T10:01:30;99493.84;;;43.25;14.98
54900;BME280;40801;41.924;25.562;2022-07-23T10:03:57;99487.09;;;42.35;15.67
54900;BME280;40801;41.924;25.562;2022-07-23T10:06:23;99490.75;;;42.88;15.64
54900;BME280;40801;41.924;25.562;2022-07-23T10:08:50;99486.53;;;43.41;15.03
54900;BME280;40801;41.924;25.562;2022-07-23T10:11:16;99483.25;;;43.26;15.22
54900;BME280;40801;41.924;25.562;2022-07-23T10:13:42;99483.84;;;43.19;15.11
54900;BME280;40801;41.924;25.562;2022-07-23T10:16:14;99476.94;;;43.44;15.30
54900;BME280;40801;41.924;25.562;2022-07-23T10:18:40;99470.84;;;43.59;15.38
54900;BME280;40801;41.924;25.562;2022-07-23T10:21:07;99469.25;;;43.94;14.66
54900;BME280;40801;41.924;25.562;2022-07-23T10:23:51;99462.78;;;43.93;14.37
54900;BME280;40801;41.924;25.562;2022-07-23T10:26:32;99459.47;;;44.13;14.28
54900;BME280;40801;41.924;25.562;2022-07-23T10:29:41;99465.63;;;44.61;15.18
54900;BME280;40801;41.924;25.562;2022-07-23T10:37:41;99447.97;;;44.81;14.03
54900;BME280;40801;41.924;25.562;2022-07-23T10:40:21;99442.56;;;44.64;14.14
54900;BME280;40801;41.924;25.562;2022-07-23T10:42:50;99437.09;;;44.85;13.59
54900;BME280;40801;41.924;25.562;2022-07-23T10:45:36;99427.47;;;44.88;13.33
54900;BME280;40801;41.924;25.562;2022-07-23T10:48:15;99418.00;;;44.80;13.90
54900;BME280;40801;41.924;25.562;2022-07-23T10:50:42;99419.53;;;45.00;14.20
54900;BME280;40801;41.924;25.562;2022-07-23T10:53:18;99406.28;;;45.02;13.34
54900;BME280;40801;41.924;25.562;2022-07-23T10:55:51;99405.19;;;45.05;13.94
54900;BME280;40801;41.924;25.562;2022-07-23T10:58:22;99403.03;;;45.12;12.93
54900;BME280;40801;41.924;25.562;2022-07-23T11:00:49;99413.16;;;44.75;13.87
54900;BME280;40801;41.924;25.562;2022-07-23T11:05:54;99392.59;;;45.01;13.57
54900;BME280;40801;41.924;25.562;2022-07-23T11:08:19;99397.44;;;45.51;13.46
54900;BME280;40801;41.924;25.562;2022-07-23T11:10:55;99390.75;;;45.49;13.13
54900;BME280;40801;41.924;25.562;2022-07-23T11:34:44;99381.03;;;45.71;13.70
54900;BME280;40801;41.924;25.562;2022-07-23T11:37:13;99372.66;;;45.99;12.60
54900;BME280;40801;41.924;25.562;2022-07-23T11:39:54;99377.91;;;46.21;12.74
54900;BME280;40801;41.924;25.562;2022-07-23T11:42:19;99375.69;;;46.27;12.79
54900;BME280;40801;41.924;25.562;2022-07-23T11:44:46;99371.19;;;46.66;12.37
54900;BME280;40801;41.924;25.562;2022-07-23T11:47:11;99370.72;;;46.75;12.14
54900;BME280;40801;41.924;25.562;2022-07-23T11:49:38;99376.34;;;46.68;12.00
54900;BME280;40801;41.924;25.562;2022-07-23T11:54:36;99362.06;;;46.68;12.26
54900;BME280;40801;41.924;25.562;2022-07-23T11:57:03;99372.31;;;46.16;12.85
54900;BME280;40801;41.924;25.562;2022-07-23T11:59:32;99369.34;;;46.21;12.37
54900;BME280;40801;41.924;25.562;2022-07-23T12:02:03;99366.75;;;46.57;12.38
54900;BME280;40801;41.924;25.562;2022-07-23T12:04:45;99371.78;;;46.51;11.95
54900;BME280;40801;41.924;25.562;2022-07-23T12:07:30;99362.31;;;46.90;12.02
54900;BME280;40801;41.924;25.562;2022-07-23T12:10:08;99360.78;;;46.89;12.26
54900;BME280;40801;41.924;25.562;2022-07-23T12:12:54;99355.16;;;46.42;12.29
54900;BME280;40801;41.924;25.562;2022-07-23T12:15:23;99352.59;;;46.52;12.67
54900;BME280;40801;41.924;25.562;2022-07-23T12:17:50;99361.75;;;46.92;12.38
54900;BME280;40801;41.924;25.562;2022-07-23T12:20:18;99347.03;;;47.30;11.97
54900;BME280;40801;41.924;25.562;2022-07-23T12:22:47;99347.19;;;47.24;12.04
54900;BME280;40801;41.924;25.562;2022-07-23T12:25:21;99340.59;;;46.87;11.72
54900;BME280;40801;41.924;25.562;2022-07-23T12:28:02;99341.72;;;46.84;11.69
54900;BME280;40801;41.924;25.562;2022-07-23T12:30:42;99337.66;;;47.01;11.46
54900;BME280;40801;41.924;25.562;2022-07-23T12:33:10;99332.63;;;46.73;12.45
54900;BME280;40801;41.924;25.562;2022-07-23T12:35:38;99334.19;;;47.15;12.11
54900;BME280;40801;41.924;25.562;2022-07-23T12:38:08;99330.25;;;47.55;11.56
54900;BME280;40801;41.924;25.562;2022-07-23T12:43:10;99318.81;;;47.26;11.68
54900;BME280;40801;41.924;25.562;2022-07-23T12:48:34;99323.03;;;47.33;12.39
54900;BME280;40801;41.924;25.562;2022-07-23T12:51:21;99307.78;;;47.30;12.31
54900;BME280;40801;41.924;25.562;2022-07-23T12:53:55;99307.25;;;47.11;12.02
54900;BME280;40801;41.924;25.562;2022-07-23T12:56:27;99314.13;;;46.87;12.04
54900;BME280;40801;41.924;25.562;2022-07-23T13:06:31;99294.94;;;45.98;12.75
54900;BME280;40801;41.924;25.562;2022-07-23T13:08:57;99301.75;;;46.29;12.72
54900;BME280;40801;41.924;25.562;2022-07-23T13:11:23;99291.97;;;46.25;12.36
54900;BME280;40801;41.924;25.562;2022-07-23T13:13:49;99294.72;;;46.30;12.43
54900;BME280;40801;41.924;25.562;2022-07-23T13:16:14;99287.94;;;46.75;11.88
54900;BME280;40801;41.924;25.562;2022-07-23T13:18:40;99276.59;;;46.83;11.94
54900;BME280;40801;41.924;25.562;2022-07-23T13:21:05;99283.22;;;47.06;12.79
54900;BME280;40801;41.924;25.562;2022-07-23T13:23:31;99279.22;;;47.02;12.42
54900;BME280;40801;41.924;25.562;2022-07-23T13:25:56;99275.91;;;46.69;12.22
54900;BME280;40801;41.924;25.562;2022-07-23T13:28:22;99277.06;;;46.53;12.35
54900;BME280;40801;41.924;25.562;2022-07-23T13:30:49;99279.81;;;46.04;12.40
54900;BME280;40801;41.924;25.562;2022-07-23T13:33:19;99274.97;;;46.53;12.84
54900;BME280;40801;41.924;25.562;2022-07-23T13:35:45;99272.56;;;46.57;12.69
54900;BME280;40801;41.924;25.562;2022-07-23T13:38:11;99273.84;;;46.36;12.30
54900;BME280;40801;41.924;25.562;2022-07-23T13:40:40;99276.41;;;46.05;12.35
54900;BME280;40801;41.924;25.562;2022-07-23T13:43:08;99265.81;;;45.39;12.62